Time;durP1;ratioP1;P1;durP2;ratioP2;P2;SDS_P1;SDS_P2;PMS_P1;PMS_P2;Temp;Humidity;BMP_temperature;BMP_pressure;BME280_temperature;BME280_humidity;BME280_pressure;Samples;Min_cycle;Max_cycle;Signal;HPM_P1;HPM_P2
2023/10/02 00:01:51;;;;;;;;;;;;;;;17.09;46.38;101058.69;4946231;29;1051;-59
2023/10/02 00:04:23;;;;;;;;;;;;;;;17.06;45.88;101064.72;4945452;29;1203;-59
2023/10/02 00:07:05;;;;;;;;;;;;;;;17.07;45.30;101055.41;4958363;29;1204;-58
2023/10/02 00:09:37;;;;;;;;;;;;;;;17.38;46.05;101052.72;4947920;29;1146;-57
2023/10/02 00:12:11;;;;;;;;;;;;;;;17.49;47.04;101055.47;4940332;29;1156;-57
2023/10/02 00:14:38;;;;;;;;;;;;;;;17.24;46.61;101062.59;4942621;29;1062;-57
2023/10/02 00:17:03;;;;;;;;;;;;;;;17.12;46.07;101059.25;4955914;29;1187;-56
2023/10/02 00:19:30;;;;;;;;;;;;;;;17.02;45.99;101060.88;4951802;29;1910;-56
2023/10/02 00:21:57;;;;;;;;;;;;;;;17.77;46.35;101076.97;4955664;29;1064;-56
2023/10/02 00:24:26;;;;;;;;;;;;;;;17.47;47.23;101080.50;4952243;29;1516;-56
2023/10/02 00:26:53;;;;;;;;;;;;;;;17.26;46.42;101079.63;4953610;29;1113;-56
2023/10/02 00:29:19;;;;;;;;;;;;;;;17.09;46.18;101085.34;4945065;29;1107;-56
2023/10/02 00:31:46;;;;;;;;;;;;;;;17.08;45.59;101084.53;4939507;29;1054;-56
2023/10/02 00:34:13;;;;;;;;;;;;;;;17.03;45.46;101083.69;4938365;29;1088;-56
2023/10/02 00:36:39;;;;;;;;;;;;;;;16.93;45.40;101093.53;4951758;29;1078;-56
2023/10/02 00:44:52;;;;;;;;;;;;;;;17.28;46.74;101097.50;4954539;29;1113;-58
2023/10/02 00:47:35;;;;;;;;;;;;;;;17.12;46.07;101097.72;4949957;29;1318;-58
2023/10/02 00:50:24;;;;;;;;;;;;;;;16.96;45.61;101091.31;4946572;29;1200;-59
2023/10/02 00:52:49;;;;;;;;;;;;;;;17.34;45.60;101089.28;4937726;29;1277;-57
2023/10/02 00:55:20;;;;;;;;;;;;;;;17.47;46.84;101098.91;4954391;29;1139;-58
2023/10/02 00:57:46;;;;;;;;;;;;;;;17.18;46.41;101104.88;4955005;29;1543;-58
2023/10/02 01:00:21;;;;;;;;;;;;;;;17.06;46.11;101097.69;4952556;29;1902;-58
2023/10/02 01:02:51;;;;;;;;;;;;;;;17.03;45.69;101103.75;4956320;29;1205;-57
2023/10/02 01:05:17;;;;;;;;;;;;;;;17.14;44.88;101112.00;4956196;29;1682;-56
2023/10/02 01:07:43;;;;;;;;;;;;;;;17.45;45.73;101107.44;4949550;29;1113;-57
2023/10/02 01:10:17;;;;;;;;;;;;;;;17.66;46.64;101104.75;4952030;29;1142;-57
2023/10/02 01:12:43;;;;;;;;;;;;;;;17.21;46.87;101107.13;4948396;29;1688;-57
2023/10/02 01:15:12;;;;;;;;;;;;;;;17.14;45.91;101117.50;4945785;29;1089;-58
2023/10/02 01:17:41;;;;;;;;;;;;;;;17.14;45.62;101126.59;4956337;29;1222;-57
2023/10/02 01:20:12;;;;;;;;;;;;;;;17.94;46.36;101117.19;4956385;29;1910;-58
2023/10/02 01:22:44;;;;;;;;;;;;;;;17.55;46.84;101120.38;4957376;29;1076;-57
2023/10/02 01:25:16;;;;;;;;;;;;;;;17.22;46.43;101114.25;4941096;29;1077;-57
2023/10/02 01:27:48;;;;;;;;;;;;;;;17.13;46.03;101118.63;4938234;29;1144;-57
2023/10/02 01:30:16;;;;;;;;;;;;;;;17.07;45.51;101132.31;4944915;29;1045;-57
2023/10/02 01:33:06;;;;;;;;;;;;;;;17.13;45.05;101135.91;4957742;28;1101;-57
2023/10/02 01:35:50;;;;;;;;;;;;;;;17.05;45.50;101136.44;4951512;29;1176;-57
2023/10/02 01:38:37;;;;;;;;;;;;;;;17.45;46.68;101140.44;4942082;29;1017;-57
2023/10/02 01:41:04;;;;;;;;;;;;;;;17.18;46.39;101132.34;4952469;28;1979;-57
2023/10/02 01:43:50;;;;;;;;;;;;;;;17.07;45.87;101132.31;4948940;29;946;-58
2023/10/02 01:46:18;;;;;;;;;;;;;;;16.97;45.47;101136.94;4953663;29;1465;-58
2023/10/02 01:48:48;;;;;;;;;;;;;;;17.22;45.92;101141.72;4941464;29;1124;-57
2023/10/02 01:51:21;;;;;;;;;;;;;;;17.39;46.82;101139.59;4959629;29;1201;-57
2023/10/02 01:53:48;;;;;;;;;;;;;;;17.19;46.11;101148.56;4960637;29;1092;-57
2023/10/02 01:56:15;;;;;;;;;;;;;;;17.03;45.88;101141.38;4948154;29;1170;-57
2023/10/02 01:58:44;;;;;;;;;;;;;;;16.99;45.35;101145.75;4947948;29;1251;-57
2023/10/02 02:01:10;;;;;;;;;;;;;;;17.28;45.56;101146.16;4958774;29;1910;-57
2023/10/02 02:03:36;;;;;;;;;;;;;;;17.57;46.44;101163.03;4953104;28;1073;-57
2023/10/02 02:06:08;;;;;;;;;;;;;;;17.27;46.46;101164.56;4952963;29;1125;-57
2023/10/02 02:08:35;;;;;;;;;;;;;;;17.15;45.62;101171.38;4955844;29;1121;-57
2023/10/02 02:11:14;;;;;;;;;;;;;;;17.03;45.35;101179.84;4960162;28;1058;-57
2023/10/02 02:13:44;;;;;;;;;;;;;;;17.82;45.97;101177.09;4949223;28;1390;-56
2023/10/02 02:16:14;;;;;;;;;;;;;;;17.28;46.23;101187.38;4940968;29;1059;-57
2023/10/02 02:18:42;;;;;;;;;;;;;;;17.07;46.05;101173.53;4946896;29;1109;-56
2023/10/02 02:21:12;;;;;;;;;;;;;;;17.02;45.66;101191.91;4942598;29;1910;-56
2023/10/02 02:23:38;;;;;;;;;;;;;;;17.75;46.26;101194.69;4959916;29;1136;-56
2023/10/02 02:26:03;;;;;;;;;;;;;;;17.23;46.53;101188.16;4958307;29;1054;-56
2023/10/02 02:28:29;;;;;;;;;;;;;;;17.22;45.90;101177.44;4959837;29;875;-57
2023/10/02 02:30:55;;;;;;;;;;;;;;;17.05;45.47;101186.69;4957023;29;1077;-56
2023/10/02 02:33:34;;;;;;;;;;;;;;;17.97;46.40;101204.66;4953765;29;1154;-56
2023/10/02 02:36:06;;;;;;;;;;;;;;;17.36;46.90;101192.38;4953538;29;1065;-57
2023/10/02 02:38:33;;;;;;;;;;;;;;;17.23;46.10;101204.66;4940465;29;1075;-57
2023/10/02 02:41:08;;;;;;;;;;;;;;;17.15;45.56;101196.09;4955933;29;1918;-57
2023/10/02 02:43:37;;;;;;;;;;;;;;;18.11;46.24;101210.47;4959170;28;1124;-58
2023/10/02 02:46:04;;;;;;;;;;;;;;;17.51;46.94;101201.75;4956052;29;1361;-58
2023/10/02 02:48:43;;;;;;;;;;;;;;;17.35;46.41;101220.94;4951619;29;1037;-57
2023/10/02 02:51:18;;;;;;;;;;;;;;;17.13;45.87;101220.28;4956842;29;1165;-57
2023/10/02 02:53:43;;;;;;;;;;;;;;;17.16;45.37;101228.00;4959372;29;1115;-57
2023/10/02 02:56:15;;;;;;;;;;;;;;;17.13;44.83;101237.59;4959717;29;1136;-57
2023/10/02 02:58:48;;;;;;;;;;;;;;;17.24;45.57;101233.00;4959128;29;1201;-57
2023/10/02 03:01:21;;;;;;;;;;;;;;;17.38;46.49;101231.41;4958977;28;1983;-58
2023/10/02 03:03:56;;;;;;;;;;;;;;;17.05;46.24;101238.91;4956668;29;1303;-58
2023/10/02 03:06:24;;;;;;;;;;;;;;;16.98;45.88;101237.50;4958837;28;949;-63
2023/10/02 03:08:51;;;;;;;;;;;;;;;17.06;44.94;101240.56;4946133;29;1216;-63
2023/10/02 03:11:28;;;;;;;;;;;;;;;17.06;45.37;101235.06;4959244;29;1089;-61
2023/10/02 03:14:11;;;;;;;;;;;;;;;17.34;46.42;101246.78;4945285;29;1263;-61
2023/10/02 03:16:37;;;;;;;;;;;;;;;17.09;45.68;101245.53;4952113;29;1029;-59
2023/10/02 03:19:03;;;;;;;;;;;;;;;16.97;45.74;101257.81;4949325;29;1956;-60
2023/10/02 03:21:30;;;;;;;;;;;;;;;17.00;45.06;101244.38;4955463;29;1133;-58
2023/10/02 03:23:59;;;;;;;;;;;;;;;17.23;45.79;101247.81;4950558;29;1066;-58
2023/10/02 03:26:27;;;;;;;;;;;;;;;17.63;46.48;101254.63;4945522;29;1156;-57
2023/10/02 03:29:02;;;;;;;;;;;;;;;17.25;46.65;101259.34;4955823;29;907;-58
2023/10/02 03:31:34;;;;;;;;;;;;;;;17.06;46.23;101261.72;4952879;28;1053;-64
2023/10/02 03:34:25;;;;;;;;;;;;;;;17.04;45.39;101258.41;4958703;29;1030;-61
2023/10/02 03:36:50;;;;;;;;;;;;;;;16.87;45.18;101264.03;4951637;28;2892;-61
2023/10/02 03:39:24;;;;;;;;;;;;;;;17.40;45.46;101264.13;4951620;29;1895;-58
2023/10/02 03:41:50;;;;;;;;;;;;;;;17.42;46.45;101264.69;4947042;29;1003;-59
2023/10/02 03:44:16;;;;;;;;;;;;;;;17.07;46.16;101275.22;4956940;29;978;-59
2023/10/02 03:46:42;;;;;;;;;;;;;;;16.93;45.63;101285.81;4946522;29;1014;-52
2023/10/02 03:49:08;;;;;;;;;;;;;;;16.87;45.27;101286.84;4958342;29;1060;-62
2023/10/02 03:51:37;;;;;;;;;;;;;;;16.84;44.92;101292.84;4956007;29;1029;-56
2023/10/02 03:54:17;;;;;;;;;;;;;;;17.70;45.80;101293.69;4952695;29;1097;-56
2023/10/02 03:56:51;;;;;;;;;;;;;;;17.21;46.41;101297.56;4948706;29;998;-52
2023/10/02 03:59:17;;;;;;;;;;;;;;;17.18;46.12;101292.59;4944549;29;1930;-56
2023/10/02 04:01:43;;;;;;;;;;;;;;;17.06;45.80;101297.44;4957840;29;1018;-59
2023/10/02 04:06:37;;;;;;;;;;;;;;;17.42;46.40;101306.75;4954234;29;2091;-58
2023/10/02 04:09:09;;;;;;;;;;;;;;;17.68;47.27;101322.56;4957701;28;1237;-58
2023/10/02 04:11:36;;;;;;;;;;;;;;;17.24;47.20;101318.19;4958034;29;1059;-55
2023/10/02 04:14:02;;;;;;;;;;;;;;;17.11;46.23;101324.97;4957852;29;1104;-55
2023/10/02 04:16:30;;;;;;;;;;;;;;;17.00;45.88;101324.06;4955177;29;1041;-58
2023/10/02 04:19:00;;;;;;;;;;;;;;;17.03;45.36;101323.53;4958087;29;1232;-58
2023/10/02 04:21:27;;;;;;;;;;;;;;;16.81;45.46;101322.78;4957932;29;1224;-60
2023/10/02 04:23:56;;;;;;;;;;;;;;;16.84;44.74;101319.50;4957570;29;978;-55
2023/10/02 04:26:23;;;;;;;;;;;;;;;16.91;45.11;101336.63;4957768;29;1038;-55
2023/10/02 04:28:55;;;;;;;;;;;;;;;17.24;46.37;101331.94;4948496;29;998;-56
2023/10/02 04:31:22;;;;;;;;;;;;;;;16.91;46.42;101347.59;4950341;29;972;-56
2023/10/02 04:33:53;;;;;;;;;;;;;;;17.26;46.04;101332.47;4957699;29;1022;-57
2023/10/02 04:36:31;;;;;;;;;;;;;;;17.34;46.85;101339.41;4947232;29;1921;-55
2023/10/02 04:38:57;;;;;;;;;;;;;;;18.27;45.31;101351.69;4948741;29;1124;-52
2023/10/02 04:41:26;;;;;;;;;;;;;;;17.78;46.35;101363.84;4947590;29;1922;-55
2023/10/02 04:43:57;;;;;;;;;;;;;;;17.60;46.74;101354.97;4957212;29;1006;-55
2023/10/02 04:46:25;;;;;;;;;;;;;;;17.45;47.29;101366.69;4972142;28;1041;-55
2023/10/02 04:48:59;;;;;;;;;;;;;;;17.31;47.81;101362.75;4945785;29;1438;-57
2023/10/02 04:51:28;;;;;;;;;;;;;;;17.27;48.08;101358.88;4970647;28;1031;-54
2023/10/02 04:53:57;;;;;;;;;;;;;;;17.24;48.04;101348.41;4953693;29;856;-50
2023/10/02 04:56:26;;;;;;;;;;;;;;;17.06;48.75;101344.16;4956916;28;1333;-52
2023/10/02 04:58:57;;;;;;;;;;;;;;;16.98;48.82;101341.91;4956118;28;1385;-54
2023/10/02 05:01:29;;;;;;;;;;;;;;;16.98;48.84;101341.91;4956882;28;1963;-55
2023/10/02 05:03:55;;;;;;;;;;;;;;;16.88;49.14;101348.94;4948330;29;1077;-52
2023/10/02 05:14:29;;;;;;;;;;;;;;;16.63;49.98;101360.50;4947798;29;1050;-57
2023/10/02 05:17:16;;;;;;;;;;;;;;;16.64;49.73;101366.84;4948374;29;1186;-58
2023/10/02 05:22:27;;;;;;;;;;;;;;;17.78;47.48;101377.59;4960324;29;1006;-57
2023/10/02 05:24:58;;;;;;;;;;;;;;;17.16;48.99;101387.38;4952695;28;1169;-58
2023/10/02 05:27:30;;;;;;;;;;;;;;;16.95;49.45;101389.13;4971724;28;1099;-58
2023/10/02 05:29:58;;;;;;;;;;;;;;;16.80;49.91;101385.09;4952298;28;1161;-57
2023/10/02 05:32:24;;;;;;;;;;;;;;;17.40;48.67;101374.94;4952373;29;1050;-59
2023/10/02 05:34:59;;;;;;;;;;;;;;;17.49;48.40;101366.16;4960727;29;1058;-58
2023/10/02 05:37:30;;;;;;;;;;;;;;;17.07;49.58;101384.28;4960674;29;2182;-59
2023/10/02 05:40:32;;;;;;;;;;;;;;;16.97;49.66;101386.94;4959970;29;1906;-57
2023/10/02 05:42:53;;;;;;;;;;;;;;;16.87;49.78;101393.97;4960239;29;1664;-57
2023/10/02 05:48:07;;;;;;;;;;;;;;;16.58;50.48;101398.91;4941482;29;1124;-57
2023/10/02 05:50:40;;;;;;;;;;;;;;;17.21;49.41;101398.44;4970082;28;1185;-57
2023/10/02 05:53:06;;;;;;;;;;;;;;;17.45;48.72;101394.19;4953812;29;1399;-54
2023/10/02 05:55:56;;;;;;;;;;;;;;;17.05;49.56;101409.25;4954934;29;1125;-58
2023/10/02 05:58:27;;;;;;;;;;;;;;;16.86;50.43;101416.22;4960282;29;1064;-58
2023/10/02 06:00:53;;;;;;;;;;;;;;;16.74;50.36;101417.19;4959851;29;1970;-56
2023/10/02 06:03:18;;;;;;;;;;;;;;;17.41;49.11;101416.97;4947465;29;994;-57
2023/10/02 06:06:06;;;;;;;;;;;;;;;17.38;49.23;101421.09;4950261;28;1738;-54
2023/10/02 06:08:33;;;;;;;;;;;;;;;16.95;50.32;101428.41;4955660;29;1557;-58
2023/10/02 06:11:08;;;;;;;;;;;;;;;16.82;50.59;101428.81;4960208;29;1037;-55
2023/10/02 06:13:37;;;;;;;;;;;;;;;16.75;50.83;101429.81;4959386;29;1073;-54
2023/10/02 06:16:03;;;;;;;;;;;;;;;16.62;50.96;101435.75;4960207;29;1046;-55
2023/10/02 06:18:28;;;;;;;;;;;;;;;16.62;50.91;101437.66;4947727;29;1131;-56
2023/10/02 06:21:03;;;;;;;;;;;;;;;17.49;49.30;101437.66;4959794;29;1914;-57
2023/10/02 06:23:37;;;;;;;;;;;;;;;17.35;49.30;101446.34;4954657;29;1575;-57
2023/10/02 06:26:09;;;;;;;;;;;;;;;17.00;50.29;101455.94;4957406;29;1404;-55
2023/10/02 06:28:35;;;;;;;;;;;;;;;16.82;50.81;101464.53;4958556;29;1100;-56
2023/10/02 06:31:01;;;;;;;;;;;;;;;16.71;50.94;101458.06;4952485;29;1011;-56
2023/10/02 06:33:27;;;;;;;;;;;;;;;17.92;48.34;101455.03;4952577;28;1289;-58
2023/10/02 06:36:00;;;;;;;;;;;;;;;17.27;49.72;101466.06;4965459;28;1919;-58
2023/10/02 06:38:31;;;;;;;;;;;;;;;16.98;50.41;101465.53;4959238;29;970;-58
2023/10/02 06:40:57;;;;;;;;;;;;;;;16.85;50.87;101469.50;4957067;29;1915;-57
2023/10/02 06:43:28;;;;;;;;;;;;;;;17.31;50.06;101472.72;4954151;29;1030;-58
2023/10/02 06:46:19;;;;;;;;;;;;;;;17.51;49.13;101461.03;4958638;29;1026;-55
2023/10/02 06:48:45;;;;;;;;;;;;;;;17.05;50.47;101466.97;4958864;28;1290;-59
2023/10/02 06:51:13;;;;;;;;;;;;;;;16.91;50.66;101469.31;4958860;28;1350;-59
2023/10/02 06:53:40;;;;;;;;;;;;;;;16.85;50.94;101474.97;4961184;28;1252;-56
2023/10/02 06:56:11;;;;;;;;;;;;;;;16.70;51.07;101472.88;4958478;28;1385;-57
2023/10/02 06:58:49;;;;;;;;;;;;;;;17.60;49.38;101475.16;4963001;28;1240;-57
2023/10/02 07:01:18;;;;;;;;;;;;;;;17.33;49.82;101472.44;4959895;28;1973;-57
2023/10/02 07:03:50;;;;;;;;;;;;;;;17.00;50.62;101480.66;4959050;29;1137;-58
2023/10/02 07:06:19;;;;;;;;;;;;;;;16.83;51.09;101482.63;4956113;29;1856;-59
2023/10/02 07:11:45;;;;;;;;;;;;;;;16.81;51.26;101482.91;4936090;28;1372;-56
2023/10/02 07:14:11;;;;;;;;;;;;;;;17.71;49.20;101484.28;4955799;28;1315;-57
2023/10/02 07:16:37;;;;;;;;;;;;;;;17.13;50.81;101486.84;4948766;29;995;-59
2023/10/02 07:19:04;;;;;;;;;;;;;;;16.88;51.25;101490.94;4957758;28;953;-57
2023/10/02 07:21:30;;;;;;;;;;;;;;;16.77;51.58;101490.84;4958145;29;1983;-59
2023/10/02 07:24:25;;;;;;;;;;;;;;;16.64;51.80;101491.22;4954815;29;1088;-56
2023/10/02 07:26:51;;;;;;;;;;;;;;;17.80;48.84;101490.97;4951012;29;1400;-59
2023/10/02 07:29:17;;;;;;;;;;;;;;;17.18;50.45;101501.47;4944530;28;1094;-58
2023/10/02 07:31:44;;;;;;;;;;;;;;;16.97;50.98;101505.91;4953630;29;998;-57
2023/10/02 07:34:10;;;;;;;;;;;;;;;16.82;51.53;101502.97;4958368;29;1114;-56
2023/10/02 07:36:44;;;;;;;;;;;;;;;16.71;51.63;101511.06;4956792;29;1924;-57
2023/10/02 07:39:35;;;;;;;;;;;;;;;16.67;51.58;101500.88;4958253;29;1914;-57
2023/10/02 07:42:03;;;;;;;;;;;;;;;17.87;49.12;101504.50;4957078;29;1428;-55
2023/10/02 07:44:36;;;;;;;;;;;;;;;17.20;50.71;101509.44;4957683;29;1141;-57
2023/10/02 07:47:08;;;;;;;;;;;;;;;16.96;51.29;101511.63;4957238;29;1283;-58
2023/10/02 07:49:34;;;;;;;;;;;;;;;16.81;51.62;101510.38;4955533;29;1030;-57
2023/10/02 07:52:00;;;;;;;;;;;;;;;16.73;51.73;101522.66;4952475;29;1366;-53
2023/10/02 07:54:44;;;;;;;;;;;;;;;16.63;52.02;101518.94;4963551;28;1295;-51
2023/10/02 07:57:13;;;;;;;;;;;;;;;17.70;49.67;101516.47;4952976;28;1062;-53
2023/10/02 07:59:40;;;;;;;;;;;;;;;17.28;50.70;101518.03;4955566;28;1977;-53
2023/10/02 08:02:21;;;;;;;;;;;;;;;16.96;51.42;101520.72;4953435;29;1217;-50
2023/10/02 08:04:47;;;;;;;;;;;;;;;16.82;51.75;101524.94;4957381;29;955;-58
2023/10/02 08:07:13;;;;;;;;;;;;;;;16.70;51.95;101534.13;4952045;28;2149;-54
2023/10/02 08:09:39;;;;;;;;;;;;;;;16.66;51.92;101530.25;4957683;29;1026;-58
2023/10/02 08:12:08;;;;;;;;;;;;;;;17.82;49.52;101520.97;4956445;29;1122;-58
2023/10/02 08:14:42;;;;;;;;;;;;;;;17.18;51.25;101533.59;4944449;29;1089;-57
2023/10/02 08:17:18;;;;;;;;;;;;;;;16.90;51.67;101517.09;4949446;29;1064;-58
2023/10/02 08:19:54;;;;;;;;;;;;;;;16.76;52.01;101522.13;4953572;29;1959;-58
2023/10/02 08:22:44;;;;;;;;;;;;;;;16.73;51.80;101522.66;4956294;29;1057;-58
2023/10/02 08:25:13;;;;;;;;;;;;;;;16.97;51.87;101516.91;4938595;29;1056;-57
2023/10/02 08:27:57;;;;;;;;;;;;;;;17.68;49.85;101504.06;4939026;29;1050;-58
2023/10/02 08:30:32;;;;;;;;;;;;;;;17.10;51.60;101504.66;4956926;29;1200;-54
2023/10/02 08:33:09;;;;;;;;;;;;;;;16.92;51.94;101505.84;4952467;29;1073;-57
2023/10/02 08:35:39;;;;;;;;;;;;;;;16.75;51.91;101501.22;4963479;28;1777;-54
2023/10/02 08:38:21;;;;;;;;;;;;;;;17.79;50.03;101495.66;4957644;29;1037;-56
2023/10/02 08:41:00;;;;;;;;;;;;;;;17.18;51.36;101504.22;4938623;29;1973;-57
2023/10/02 08:43:26;;;;;;;;;;;;;;;16.97;51.76;101505.91;4945102;29;1079;-57
2023/10/02 08:45:52;;;;;;;;;;;;;;;16.85;52.17;101502.44;4961839;29;1026;-57
2023/10/02 08:48:21;;;;;;;;;;;;;;;16.75;52.28;101503.97;4948533;29;1108;-57
2023/10/02 08:50:50;;;;;;;;;;;;;;;16.68;52.10;101508.03;4952365;28;1029;-57
2023/10/02 08:53:22;;;;;;;;;;;;;;;17.00;51.96;101505.41;4957867;29;1034;-56
2023/10/02 08:58:16;;;;;;;;;;;;;;;17.10;51.81;101510.97;4960368;29;1098;-58
2023/10/02 09:03:44;;;;;;;;;;;;;;;16.75;52.32;101497.66;4960950;29;1061;-57
2023/10/02 09:11:39;;;;;;;;;;;;;;;17.61;50.82;101501.53;4960967;29;1041;-57
2023/10/02 09:14:21;;;;;;;;;;;;;;;17.02;51.90;101494.97;4954186;29;1073;-57
2023/10/02 09:17:07;;;;;;;;;;;;;;;16.85;52.42;101507.94;4956607;29;1110;-57
2023/10/02 09:19:37;;;;;;;;;;;;;;;16.70;52.71;101512.16;4960227;29;1898;-52
2023/10/02 09:22:12;;;;;;;;;;;;;;;16.66;52.51;101510.19;4960916;29;1037;-47
2023/10/02 09:24:40;;;;;;;;;;;;;;;16.73;52.56;101521.81;4960690;29;1094;-57
2023/10/02 09:27:30;;;;;;;;;;;;;;;17.70;50.55;101518.41;4960553;29;1096;-54
2023/10/02 09:32:49;;;;;;;;;;;;;;;16.86;52.44;101517.84;4960596;28;942;-57
2023/10/02 09:35:21;;;;;;;;;;;;;;;16.73;52.48;101514.41;4960272;29;2071;-52
2023/10/02 09:37:55;;;;;;;;;;;;;;;16.64;52.85;101515.13;4960298;29;1248;-54
2023/10/02 09:40:24;;;;;;;;;;;;;;;17.78;50.80;101509.63;4959396;29;1911;-54
2023/10/02 09:42:50;;;;;;;;;;;;;;;17.20;51.90;101506.69;4957182;28;1122;-59
2023/10/02 09:45:15;;;;;;;;;;;;;;;16.96;52.34;101509.75;4960174;29;1054;-55
2023/10/02 09:47:44;;;;;;;;;;;;;;;16.94;52.41;101503.66;4960295;29;1113;-56
2023/10/02 09:50:23;;;;;;;;;;;;;;;16.75;52.86;101503.97;4949047;29;1369;-59
2023/10/02 09:52:58;;;;;;;;;;;;;;;17.76;50.73;101496.16;4957029;29;1046;-59
2023/10/02 09:55:40;;;;;;;;;;;;;;;17.20;51.92;101492.94;4954411;29;1045;-57
2023/10/02 09:58:06;;;;;;;;;;;;;;;16.97;52.56;101494.09;4959452;29;1006;-54
2023/10/02 10:00:34;;;;;;;;;;;;;;;16.82;52.60;101491.97;4956918;29;2036;-56
2023/10/02 10:03:35;;;;;;;;;;;;;;;16.76;52.87;101496.59;4959318;29;1089;-60
2023/10/02 10:06:07;;;;;;;;;;;;;;;16.67;52.89;101487.97;4918773;29;1994;-60
2023/10/02 10:09:19;;;;;;;;;;;;;;;16.73;53.00;101492.44;4952623;29;927;-61
2023/10/02 10:11:36;;;;;;;;;;;;;;;17.61;51.18;101483.13;4959044;29;1449;-59
2023/10/02 10:14:35;;;;;;;;;;;;;;;17.12;52.24;101485.16;4946963;28;1117;-59
2023/10/02 10:17:12;;;;;;;;;;;;;;;16.87;52.62;101475.53;4959359;28;1013;-61
2023/10/02 10:20:08;;;;;;;;;;;;;;;16.80;52.74;101477.66;4957126;28;1971;-62
2023/10/02 10:22:40;;;;;;;;;;;;;;;16.71;52.76;101475.38;4941538;29;1045;-57
2023/10/02 10:27:38;;;;;;;;;;;;;;;17.65;51.09;101468.84;4955523;28;1376;-56
2023/10/02 10:30:19;;;;;;;;;;;;;;;17.10;52.39;101469.75;4959400;29;1394;-56
2023/10/02 10:32:45;;;;;;;;;;;;;;;16.93;52.99;101467.13;4958571;28;878;-62
2023/10/02 10:35:17;;;;;;;;;;;;;;;16.84;52.94;101460.41;4959190;29;1838;-61
2023/10/02 10:37:46;;;;;;;;;;;;;;;16.77;53.11;101468.03;4957688;29;1339;-61
2023/10/02 10:46:19;;;;;;;;;;;;;;;17.35;52.29;101448.25;4952497;29;1011;-54
2023/10/02 10:48:53;;;;;;;;;;;;;;;17.01;52.93;101443.88;4958562;28;1081;-52
2023/10/02 10:51:22;;;;;;;;;;;;;;;16.92;52.97;101431.69;4944660;29;1094;-57
2023/10/02 10:53:47;;;;;;;;;;;;;;;16.80;53.40;101439.22;4958134;28;1248;-54
2023/10/02 10:56:19;;;;;;;;;;;;;;;16.75;53.25;101449.06;4958142;29;906;-58
2023/10/02 10:58:45;;;;;;;;;;;;;;;16.68;53.30;101442.94;4958390;29;1113;-57
2023/10/02 11:01:13;;;;;;;;;;;;;;;16.64;53.21;101444.53;4959184;29;1910;-60
2023/10/02 11:03:48;;;;;;;;;;;;;;;17.67;52.13;101426.25;4958332;28;1060;-59
2023/10/02 11:06:15;;;;;;;;;;;;;;;17.43;52.64;101432.13;4958325;28;2403;-59
2023/10/02 11:08:44;;;;;;;;;;;;;;;17.08;53.33;101422.50;4958362;28;839;-57
2023/10/02 11:11:19;;;;;;;;;;;;;;;16.94;53.76;101432.25;4958609;29;1122;-57
2023/10/02 11:14:04;;;;;;;;;;;;;;;16.88;53.68;101433.25;4945425;29;1469;-57
2023/10/02 11:16:36;;;;;;;;;;;;;;;16.77;53.75;101430.41;4958813;29;1110;-58
2023/10/02 11:19:13;;;;;;;;;;;;;;;16.70;53.62;101428.94;4956459;29;1053;-58
2023/10/02 11:21:45;;;;;;;;;;;;;;;16.65;53.92;101431.63;4952449;29;1910;-58
2023/10/02 11:24:20;;;;;;;;;;;;;;;16.83;53.73;101439.53;4948473;29;1102;-58
2023/10/02 11:26:46;;;;;;;;;;;;;;;17.82;52.39;101441.19;4959112;28;1056;-58
2023/10/02 11:29:20;;;;;;;;;;;;;;;17.25;53.66;101440.75;4947514;29;1110;-58
2023/10/02 11:31:56;;;;;;;;;;;;;;;17.01;53.84;101443.03;4956841;29;1058;-58
2023/10/02 11:34:21;;;;;;;;;;;;;;;16.90;53.80;101437.44;4945868;29;1058;-58
2023/10/02 11:36:53;;;;;;;;;;;;;;;16.84;53.99;101435.69;4957727;29;1810;-56
2023/10/02 11:39:27;;;;;;;;;;;;;;;16.80;53.66;101441.97;4949949;29;1973;-60
2023/10/02 11:41:52;;;;;;;;;;;;;;;16.69;54.01;101430.88;4946013;29;1049;-57
2023/10/02 11:44:18;;;;;;;;;;;;;;;16.67;53.68;101429.47;4947726;29;1045;-59
2023/10/02 11:46:43;;;;;;;;;;;;;;;16.62;53.91;101429.41;4956725;28;1236;-59
2023/10/02 11:49:10;;;;;;;;;;;;;;;16.99;53.94;101429.53;4957583;29;1058;-60
2023/10/02 11:51:36;;;;;;;;;;;;;;;17.57;52.73;101432.50;4957486;29;1387;-58
2023/10/02 11:54:05;;;;;;;;;;;;;;;17.03;54.03;101427.94;4956153;29;1098;-59
2023/10/02 11:56:31;;;;;;;;;;;;;;;16.96;53.89;101424.56;4950727;29;1029;-59
2023/10/02 11:58:57;;;;;;;;;;;;;;;16.86;53.71;101432.69;4957474;29;1038;-62
2023/10/02 12:01:23;;;;;;;;;;;;;;;16.75;53.76;101423.53;4947677;28;1993;-62
2023/10/02 12:03:49;;;;;;;;;;;;;;;16.72;53.67;101435.03;4957367;28;1279;-60
2023/10/02 12:06:16;;;;;;;;;;;;;;;17.12;53.55;101420.03;4956705;28;1873;-60
2023/10/02 12:08:42;;;;;;;;;;;;;;;17.78;52.53;101421.63;4950272;29;1029;-56
2023/10/02 12:11:08;;;;;;;;;;;;;;;17.24;53.50;101425.38;4957998;29;1050;-62
2023/10/02 12:13:34;;;;;;;;;;;;;;;17.05;53.89;101425.75;4957894;29;1156;-59
2023/10/02 12:16:02;;;;;;;;;;;;;;;16.95;53.72;101430.34;4949088;29;1042;-63
2023/10/02 12:18:27;;;;;;;;;;;;;;;16.84;53.93;101430.19;4954284;29;1406;-60
2023/10/02 12:20:53;;;;;;;;;;;;;;;16.80;53.79;101439.22;4953356;29;1975;-59
2023/10/02 12:23:19;;;;;;;;;;;;;;;16.73;53.76;101432.03;4950901;29;1120;-56
2023/10/02 12:25:45;;;;;;;;;;;;;;;16.64;53.64;101439.06;4947757;29;1035;-64
2023/10/02 12:28:12;;;;;;;;;;;;;;;17.66;52.57;101427.34;4957225;29;1197;-61
2023/10/02 12:30:37;;;;;;;;;;;;;;;17.30;53.59;101429.00;4957137;29;1006;-62
2023/10/02 12:33:03;;;;;;;;;;;;;;;17.05;53.51;101434.00;4954860;29;1053;-55
2023/10/02 12:35:32;;;;;;;;;;;;;;;16.87;53.81;101439.81;4953925;29;2401;-61
2023/10/02 12:37:58;;;;;;;;;;;;;;;16.85;53.90;101431.03;4961837;28;1162;-58
2023/10/02 12:40:31;;;;;;;;;;;;;;;16.77;53.76;101429.56;4957076;29;1964;-63
2023/10/02 12:43:03;;;;;;;;;;;;;;;16.71;53.82;101425.94;4957864;29;1155;-58
2023/10/02 12:45:35;;;;;;;;;;;;;;;17.67;52.40;101423.50;4945946;28;1111;-58
2023/10/02 12:48:06;;;;;;;;;;;;;;;17.17;53.65;101419.28;4948452;29;1144;-58
2023/10/02 12:50:41;;;;;;;;;;;;;;;16.94;53.96;101418.50;4953670;29;1142;-59
2023/10/02 12:53:08;;;;;;;;;;;;;;;16.82;54.02;101418.66;4954123;29;1288;-58
2023/10/02 12:55:36;;;;;;;;;;;;;;;16.81;53.75;101427.16;4957078;29;1081;-57
2023/10/02 12:58:03;;;;;;;;;;;;;;;16.75;53.50;101424.34;4965193;28;1266;-57
2023/10/02 13:00:33;;;;;;;;;;;;;;;16.69;53.63;101417.16;4951700;29;1910;-62
2023/10/02 13:02:59;;;;;;;;;;;;;;;17.42;52.86;101413.97;4956236;29;1103;-58
2023/10/02 13:05:25;;;;;;;;;;;;;;;17.50;52.71;101420.06;4942857;29;2066;-59
2023/10/02 13:07:57;;;;;;;;;;;;;;;17.14;53.36;101417.03;4945405;29;1151;-62
2023/10/02 13:10:24;;;;;;;;;;;;;;;16.96;53.62;101416.34;4956570;28;1061;-61
2023/10/02 13:12:49;;;;;;;;;;;;;;;16.87;53.69;101417.84;4967108;28;1073;-57
2023/10/02 13:15:15;;;;;;;;;;;;;;;16.74;53.77;101414.44;4956624;28;1330;-59
2023/10/02 13:17:41;;;;;;;;;;;;;;;17.25;53.27;101422.38;4956536;28;1259;-57
2023/10/02 13:20:08;;;;;;;;;;;;;;;17.72;52.37;101422.69;4953374;29;1910;-59
2023/10/02 13:22:35;;;;;;;;;;;;;;;17.25;53.23;101425.13;4967910;28;1291;-58
2023/10/02 13:25:04;;;;;;;;;;;;;;;17.08;53.58;101427.16;4958599;28;1089;-61
2023/10/02 13:27:31;;;;;;;;;;;;;;;17.02;53.31;101423.53;4964970;28;1495;-66
2023/10/02 13:29:57;;;;;;;;;;;;;;;16.83;53.70;101423.06;4959673;29;1034;-56
2023/10/02 13:32:22;;;;;;;;;;;;;;;16.96;53.63;101419.09;4950527;29;1298;-58
2023/10/02 13:34:48;;;;;;;;;;;;;;;16.91;53.39;101424.53;4954142;29;1077;-58
2023/10/02 13:37:14;;;;;;;;;;;;;;;16.77;53.77;101424.91;4948471;29;2217;-59
2023/10/02 13:39:39;;;;;;;;;;;;;;;16.57;53.89;101425.50;4953354;29;1973;-57
2023/10/02 13:42:05;;;;;;;;;;;;;;;16.63;53.67;101428.31;4951911;28;1383;-57
2023/10/02 13:44:30;;;;;;;;;;;;;;;17.60;53.03;101422.91;4960141;28;1157;-57
2023/10/02 13:46:56;;;;;;;;;;;;;;;17.36;53.34;101420.53;4960044;28;1295;-57
2023/10/02 13:49:21;;;;;;;;;;;;;;;17.03;53.90;101422.44;4963416;28;1053;-55
2023/10/02 13:51:47;;;;;;;;;;;;;;;16.89;54.06;101427.53;4959476;28;1093;-57
2023/10/02 13:54:14;;;;;;;;;;;;;;;16.79;53.79;101427.41;4963016;28;1279;-57